64338 station(s) have been heard in the last 24 hours.

<< 712 713 714 715 716 717 718 >>
  Name/Id Latest heard Comment/Other Map
Symbol 6K5SKT-B 1788317283 70cm Voice (D-Star) 439.35000MHz +0.0000MHz Map
Symbol OE3XHU 1788317283 OpenWebRX vhf.oe3xhu.at HEIGHT=148 GAIN=0 Map
Symbol DB0HRF A 1788317283 http://db0hrf.no-ip.org/ 1.2 Voice 1242.45 28 Map
Symbol AG6NS-9 1788317283 `_3 Map
Symbol RV3DHC A 1788317283 +A point RV3DHC-14, Linux Debian 10 Map
Symbol VA2XGA-D 1788317283 70cm MMDVM Voice (DMR) 448.07500MHz -5.0000MHz, APRS for DMRGateway Map
Symbol 9A2ND-D 1788317283 70cm MMDVM Voice (DMR) 438.80000MHz +0.0000MHz, APRS for DMRGateway Map
Symbol KJ7GDN B 1788317283 70cm Voice (D-Star) 438.80000MHz +0.0000MHz Map
Symbol WV8T-2 1788317283 DigiPeater Map
Symbol CX4DO-C 1788317282 2m Voice (D-Star) 147.89000MHz +0.0000MHz Map
Symbol N4MRV B 1788317282 70cm Voice (D-Star) 431.15000MHz +0.0000MHz, APRS for ircDDBGateway Map
Symbol PI8NLB-12 1788317282 Digipeater VaraFM PI8NLB-12, Regio 21/23, Loc: Gennep Maasdriehoek, colocated with Winlink RMS Relay-Hold, @144.850MHz Map
Symbol EA2CW-DV 1788317282 DVSWITCH, 44C Map
Symbol 5Z4XB-E 1788317282 Powered by WPSD (https://wpsd.radio) Map
Symbol GM0NRT-N 1788317282 70cm MMDVM Voice (C4FM) 434.90000MHz +0.0000MHz, GM0NRT_Pi-Star_ND Map
Symbol KE0PDU-D 1788317282 70cm MMDVM Voice (DMR) 446.31500MHz +0.0000MHz, APRS for DMRGateway Map
Symbol KP4GBF-10 1788317282 147.570MHz Winlink VARA FM Wide Gateway Map
Symbol 439.162JJ 1788317282 C074 -760 SR2JJ*Jablow-KPSR Map
Symbol SK7ES-B 1788317282 70cm Voice (D-Star) 434.30000MHz +0.0000MHz Map
Symbol DH7SW-B 1788317282 70cm Voice (D-Star) 430.53750MHz +9.0000MHz Map
Symbol EA3IK-4 1788317282 https://github.com/nakhonthai/ESP32APRS_LoRa Map
Symbol DL2AKT-R 1788317282 70cm MMDVM Voice (C4FM) 439.90000MHz -9.4000MHz, DL2AKT_Pi-Star_RPT Map
Symbol NN1B-B 1788317282 440 Voice 431.52500MHz +0.0000MHz Map
Symbol YM3KCN-4 1788317281 LoRa Digi on 433.775MHz Temp: 22.89C, Humid:74.49%, Batt: 3.78V, Solar: 0.00V DigiPcktC:14 Map
Symbol RC3C-17 1788317281 Server: Debian GNU/Linux 10 (buster) Linux 4.19.0-27-amd64 | 02.09.2026 05:48:01 up 117 days, 16:53, 3 users, load average: 0.01, 0.07, 0.08 Map
Symbol OE7JTK-1 1788317281 B=100/N1 Map
Symbol IDIOTV 1788317281 Map
Symbol RK3DXB-FW 1788317281 +RK3DXB-FW point, Linux Debian 10 Map
Symbol 439.325JM 1788317281 439.325MHz T088 -760 OK0BKO Map
Symbol DK1GH-Y 1788317281 70cm MMDVM Voice (C4FM) 430.37500MHz +0.0000MHz, APRS for YSFGateway Map
Symbol RV3DHC-14 1788317281 +RV3DHC-14 point, Linux Debian 10 Map
Symbol IR5UDN-1 1788317281 C4FM RPT YSF 22220 430.3875/431.9875 Map
Symbol DB0SEL-14 1788317281 Map
Symbol N9MIH B 1788317281 2m Voice (D-Star) 145.25000MHz -0.6000MHz Map
Symbol RN3FWD-C0 1788317281 +RN3FWD | Loc LO40GD Map
Symbol KI4ZZJ-N 1788317281 440 MMDVM Voice 446.87500MHz +0.0000MHz, KI4ZZJ_Pi-Star Map
Symbol VK5RSB 1788317281 VK5 Central SA Repeater Network- VK5RSB 70cm 439.9, VK5RKW 438.05, VK5RAH 146.775, VK5RMB 146.875, VK5RBV 146.825, VK5RWR 146.750, VK5RLD 147.325, VK5RLX 438.575, VK5RMK 438.200 More NEWS to follow. Map
Symbol IR5ZYX 1788317281 430.600MHz Toff +500 C4FM RPT YSF REF 22220 Map
Symbol IK5UIK-ND 1788317281 C4FM NODE YSF REFL 22220 144.750 Map
Symbol HB9LU-12 1788317281 U=14.3V,T=26.0C APRS iGATE Lehn https://hb9lu.ch Map
Symbol IR0ZXH-1 1788317281 U=12.7V. DIGI 144800 Ausonia FR Map
Symbol 4K0WHX-N0 1788317281 2349-507H-VGF3-0395-WJ2F-RN0F-K0TJA.(DNF00WAD).N0 | +5.73 Map
Symbol RM3APRS-F 1788317281 +RM3APRS-F point, Linux Debian 10 Map
Symbol DL6MDX-5 1788317280 145.375MHz on road Map
Symbol CQ0UFL-10 1788317280 LoRa-IGate_RX:433.775_TX:433.900 Map
Symbol NA4A-10 1788317280 Fill in Igate | Morgan Co. AL, 2 WAN |Solar Batt V= U=13.2V Map
Symbol HB9PVI-8 1788317280 221048 Satgate Map
Symbol VU3KEB-B 1788317280 70cm Voice (D-Star) 434.50000MHz +0.0000MHz Map
Symbol SHIRLEY & 1788317280 SHIRLEY & PHILIP MMSI:316021943 Map
Symbol W9BCC-D 1788317280 70cm MMDVM Voice (DMR) 443.00000MHz +5.0000MHz, APRS for DMRGateway Map